sensor_id;sensor_type;location;lat;lon;timestamp;temperature;humidity
18373;DHT22;9313;51.27979100;4.44632000;2022-07-24T00:01:15;17.50;99.90
18373;DHT22;9313;51.27979100;4.44632000;2022-07-24T00:03:41;17.40;99.90
18373;DHT22;9313;51.27979100;4.44632000;2022-07-24T00:06:10;17.40;99.90
18373;DHT22;9313;51.27979100;4.44632000;2022-07-24T00:08:36;17.40;99.90
18373;DHT22;9313;51.27979100;4.44632000;2022-07-24T00:11:02;17.30;99.90
18373;DHT22;9313;51.27979100;4.44632000;2022-07-24T00:13:27;17.30;99.90
18373;DHT22;9313;51.27979100;4.44632000;2022-07-24T00:15:54;17.30;99.90
18373;DHT22;9313;51.27979100;4.44632000;2022-07-24T00:18:20;17.30;99.90
18373;DHT22;9313;51.27979100;4.44632000;2022-07-24T00:20:48;17.20;99.90
18373;DHT22;9313;51.27979100;4.44632000;2022-07-24T00:23:19;17.20;99.90
18373;DHT22;9313;51.27979100;4.44632000;2022-07-24T00:25:52;17.20;99.90
18373;DHT22;9313;51.27979100;4.44632000;2022-07-24T00:28:20;17.20;99.90
18373;DHT22;9313;51.27979100;4.44632000;2022-07-24T00:30:49;17.10;99.90
18373;DHT22;9313;51.27979100;4.44632000;2022-07-24T00:33:15;17.10;99.90
18373;DHT22;9313;51.27979100;4.44632000;2022-07-24T00:35:41;17.10;99.90
18373;DHT22;9313;51.27979100;4.44632000;2022-07-24T00:38:07;17.10;99.90
18373;DHT22;9313;51.27979100;4.44632000;2022-07-24T00:40:36;17.10;99.90
18373;DHT22;9313;51.27979100;4.44632000;2022-07-24T00:43:04;17.10;99.90
18373;DHT22;9313;51.27979100;4.44632000;2022-07-24T00:45:33;17.00;99.90
18373;DHT22;9313;51.27979100;4.44632000;2022-07-24T00:47:59;17.00;99.90
18373;DHT22;9313;51.27979100;4.44632000;2022-07-24T00:50:28;17.00;99.90
18373;DHT22;9313;51.27979100;4.44632000;2022-07-24T00:52:56;16.90;99.90
18373;DHT22;9313;51.27979100;4.44632000;2022-07-24T00:55:22;16.90;99.90
18373;DHT22;9313;51.27979100;4.44632000;2022-07-24T00:57:48;16.90;99.90
18373;DHT22;9313;51.27979100;4.44632000;2022-07-24T01:00:19;16.90;99.90
18373;DHT22;9313;51.27979100;4.44632000;2022-07-24T01:02:45;16.90;99.90
18373;DHT22;9313;51.27979100;4.44632000;2022-07-24T01:05:14;16.80;99.90
18373;DHT22;9313;51.27979100;4.44632000;2022-07-24T01:07:43;16.80;99.90
18373;DHT22;9313;51.27979100;4.44632000;2022-07-24T01:10:11;16.80;99.90
18373;DHT22;9313;51.27979100;4.44632000;2022-07-24T01:12:39;16.80;99.90
18373;DHT22;9313;51.27979100;4.44632000;2022-07-24T01:15:09;16.80;99.90
18373;DHT22;9313;51.27979100;4.44632000;2022-07-24T01:17:40;16.80;99.90
18373;DHT22;9313;51.27979100;4.44632000;2022-07-24T01:20:11;16.70;99.90
18373;DHT22;9313;51.27979100;4.44632000;2022-07-24T01:22:37;16.70;99.90
18373;DHT22;9313;51.27979100;4.44632000;2022-07-24T01:25:03;16.70;99.90
18373;DHT22;9313;51.27979100;4.44632000;2022-07-24T01:27:29;16.70;99.90
18373;DHT22;9313;51.27979100;4.44632000;2022-07-24T01:29:57;16.70;99.90
18373;DHT22;9313;51.27979100;4.44632000;2022-07-24T01:32:24;16.70;99.90
18373;DHT22;9313;51.27979100;4.44632000;2022-07-24T01:34:52;16.70;99.90
18373;DHT22;9313;51.27979100;4.44632000;2022-07-24T01:37:20;16.70;99.90
18373;DHT22;9313;51.27979100;4.44632000;2022-07-24T01:39:49;16.70;99.90
18373;DHT22;9313;51.27979100;4.44632000;2022-07-24T01:42:20;16.70;99.90
18373;DHT22;9313;51.27979100;4.44632000;2022-07-24T01:44:47;16.60;99.90
18373;DHT22;9313;51.27979100;4.44632000;2022-07-24T01:47:15;16.60;99.90
18373;DHT22;9313;51.27979100;4.44632000;2022-07-24T01:49:41;16.60;99.90
18373;DHT22;9313;51.27979100;4.44632000;2022-07-24T01:52:11;16.60;99.90
18373;DHT22;9313;51.27979100;4.44632000;2022-07-24T01:54:37;16.60;99.90
18373;DHT22;9313;51.27979100;4.44632000;2022-07-24T01:57:08;16.60;99.90
18373;DHT22;9313;51.27979100;4.44632000;2022-07-24T01:59:39;16.50;99.90
18373;DHT22;9313;51.27979100;4.44632000;2022-07-24T02:02:07;16.60;99.90
18373;DHT22;9313;51.27979100;4.44632000;2022-07-24T02:04:33;16.60;99.90
18373;DHT22;9313;51.27979100;4.44632000;2022-07-24T02:07:02;16.60;99.90
18373;DHT22;9313;51.27979100;4.44632000;2022-07-24T02:09:28;16.70;99.90
18373;DHT22;9313;51.27979100;4.44632000;2022-07-24T02:11:58;16.70;99.90
18373;DHT22;9313;51.27979100;4.44632000;2022-07-24T02:14:29;16.70;99.90
18373;DHT22;9313;51.27979100;4.44632000;2022-07-24T02:16:58;16.80;99.90
18373;DHT22;9313;51.27979100;4.44632000;2022-07-24T02:19:28;16.80;99.90
18373;DHT22;9313;51.27979100;4.44632000;2022-07-24T02:21:57;16.80;99.90
18373;DHT22;9313;51.27979100;4.44632000;2022-07-24T02:24:23;16.80;99.90
18373;DHT22;9313;51.27979100;4.44632000;2022-07-24T02:26:53;16.80;99.90
18373;DHT22;9313;51.27979100;4.44632000;2022-07-24T02:29:22;16.80;99.90
18373;DHT22;9313;51.27979100;4.44632000;2022-07-24T02:31:47;16.80;99.90
18373;DHT22;9313;51.27979100;4.44632000;2022-07-24T02:34:13;16.70;99.90
18373;DHT22;9313;51.27979100;4.44632000;2022-07-24T02:36:39;16.70;99.90
18373;DHT22;9313;51.27979100;4.44632000;2022-07-24T02:39:07;16.70;99.90
18373;DHT22;9313;51.27979100;4.44632000;2022-07-24T02:41:34;16.60;99.90
18373;DHT22;9313;51.27979100;4.44632000;2022-07-24T02:44:01;16.60;99.90
18373;DHT22;9313;51.27979100;4.44632000;2022-07-24T02:46:33;16.60;99.90
18373;DHT22;9313;51.27979100;4.44632000;2022-07-24T02:49:02;16.60;99.90
18373;DHT22;9313;51.27979100;4.44632000;2022-07-24T02:51:33;16.50;99.90
18373;DHT22;9313;51.27979100;4.44632000;2022-07-24T02:53:59;16.50;99.90
18373;DHT22;9313;51.27979100;4.44632000;2022-07-24T02:56:28;16.50;99.90
18373;DHT22;9313;51.27979100;4.44632000;2022-07-24T02:58:58;16.40;99.90
18373;DHT22;9313;51.27979100;4.44632000;2022-07-24T03:01:26;16.40;99.90
18373;DHT22;9313;51.27979100;4.44632000;2022-07-24T03:03:55;16.40;99.90
18373;DHT22;9313;51.27979100;4.44632000;2022-07-24T03:06:21;16.30;99.90
18373;DHT22;9313;51.27979100;4.44632000;2022-07-24T03:08:52;16.40;99.90
18373;DHT22;9313;51.27979100;4.44632000;2022-07-24T03:11:18;16.40;99.90
18373;DHT22;9313;51.27979100;4.44632000;2022-07-24T03:13:48;16.30;99.90
18373;DHT22;9313;51.27979100;4.44632000;2022-07-24T03:16:14;16.30;99.90
18373;DHT22;9313;51.27979100;4.44632000;2022-07-24T03:18:42;16.20;99.90
18373;DHT22;9313;51.27979100;4.44632000;2022-07-24T03:21:13;16.20;99.90
18373;DHT22;9313;51.27979100;4.44632000;2022-07-24T03:23:39;16.20;99.90
18373;DHT22;9313;51.27979100;4.44632000;2022-07-24T03:26:10;16.20;99.90
18373;DHT22;9313;51.27979100;4.44632000;2022-07-24T03:28:36;16.10;99.90
18373;DHT22;9313;51.27979100;4.44632000;2022-07-24T03:31:04;16.10;99.90
18373;DHT22;9313;51.27979100;4.44632000;2022-07-24T03:33:32;16.10;99.90
18373;DHT22;9313;51.27979100;4.44632000;2022-07-24T03:36:03;16.00;99.90
18373;DHT22;9313;51.27979100;4.44632000;2022-07-24T03:38:29;16.00;99.90
18373;DHT22;9313;51.27979100;4.44632000;2022-07-24T03:40:54;16.00;99.90
18373;DHT22;9313;51.27979100;4.44632000;2022-07-24T03:43:23;15.90;99.90
18373;DHT22;9313;51.27979100;4.44632000;2022-07-24T03:45:51;15.90;99.90
18373;DHT22;9313;51.27979100;4.44632000;2022-07-24T03:48:19;15.90;99.90
18373;DHT22;9313;51.27979100;4.44632000;2022-07-24T03:50:50;15.90;99.90
18373;DHT22;9313;51.27979100;4.44632000;2022-07-24T03:53:16;15.80;99.90
18373;DHT22;9313;51.27979100;4.44632000;2022-07-24T03:55:44;15.80;99.90
18373;DHT22;9313;51.27979100;4.44632000;2022-07-24T03:58:15;15.70;99.90
18373;DHT22;9313;51.27979100;4.44632000;2022-07-24T04:00:43;15.70;99.90
18373;DHT22;9313;51.27979100;4.44632000;2022-07-24T04:03:09;15.70;99.90
18373;DHT22;9313;51.27979100;4.44632000;2022-07-24T04:05:35;15.70;99.90
18373;DHT22;9313;51.27979100;4.44632000;2022-07-24T04:08:01;15.60;99.90
18373;DHT22;9313;51.27979100;4.44632000;2022-07-24T04:10:26;15.60;99.90
18373;DHT22;9313;51.27979100;4.44632000;2022-07-24T04:12:55;15.60;99.90
18373;DHT22;9313;51.27979100;4.44632000;2022-07-24T04:15:23;15.60;99.90
18373;DHT22;9313;51.27979100;4.44632000;2022-07-24T04:17:54;15.60;99.90
18373;DHT22;9313;51.27979100;4.44632000;2022-07-24T04:20:22;15.60;99.90
18373;DHT22;9313;51.27979100;4.44632000;2022-07-24T04:22:50;15.60;99.90
18373;DHT22;9313;51.27979100;4.44632000;2022-07-24T04:25:17;15.60;99.90
18373;DHT22;9313;51.27979100;4.44632000;2022-07-24T04:27:43;15.60;99.90
18373;DHT22;9313;51.27979100;4.44632000;2022-07-24T04:30:14;15.60;99.90
18373;DHT22;9313;51.27979100;4.44632000;2022-07-24T04:32:40;15.70;99.90
18373;DHT22;9313;51.27979100;4.44632000;2022-07-24T04:35:08;15.70;99.90
18373;DHT22;9313;51.27979100;4.44632000;2022-07-24T04:37:39;15.70;99.90
18373;DHT22;9313;51.27979100;4.44632000;2022-07-24T04:40:07;15.70;99.90
18373;DHT22;9313;51.27979100;4.44632000;2022-07-24T04:42:39;15.80;99.90
18373;DHT22;9313;51.27979100;4.44632000;2022-07-24T04:45:05;15.80;99.90
18373;DHT22;9313;51.27979100;4.44632000;2022-07-24T04:47:36;15.80;99.90
18373;DHT22;9313;51.27979100;4.44632000;2022-07-24T04:50:03;15.80;99.90
18373;DHT22;9313;51.27979100;4.44632000;2022-07-24T04:52:29;15.90;99.90
18373;DHT22;9313;51.27979100;4.44632000;2022-07-24T04:54:57;15.90;99.90
18373;DHT22;9313;51.27979100;4.44632000;2022-07-24T04:57:23;16.00;99.90
18373;DHT22;9313;51.27979100;4.44632000;2022-07-24T04:59:49;16.10;99.90
18373;DHT22;9313;51.27979100;4.44632000;2022-07-24T05:02:18;16.10;99.90
18373;DHT22;9313;51.27979100;4.44632000;2022-07-24T05:04:49;16.20;99.90
18373;DHT22;9313;51.27979100;4.44632000;2022-07-24T05:07:19;16.30;99.90
18373;DHT22;9313;51.27979100;4.44632000;2022-07-24T05:09:47;16.40;99.90
18373;DHT22;9313;51.27979100;4.44632000;2022-07-24T05:12:13;16.50;99.90
18373;DHT22;9313;51.27979100;4.44632000;2022-07-24T05:14:39;16.60;99.90
18373;DHT22;9313;51.27979100;4.44632000;2022-07-24T05:17:05;16.70;99.90
18373;DHT22;9313;51.27979100;4.44632000;2022-07-24T05:19:31;16.80;99.90
18373;DHT22;9313;51.27979100;4.44632000;2022-07-24T05:22:01;16.90;99.90
18373;DHT22;9313;51.27979100;4.44632000;2022-07-24T05:24:30;17.00;99.90
18373;DHT22;9313;51.27979100;4.44632000;2022-07-24T05:26:56;17.00;99.90
18373;DHT22;9313;51.27979100;4.44632000;2022-07-24T05:29:24;17.20;99.90
18373;DHT22;9313;51.27979100;4.44632000;2022-07-24T05:31:54;17.30;99.90
18373;DHT22;9313;51.27979100;4.44632000;2022-07-24T05:34:21;17.40;99.90
18373;DHT22;9313;51.27979100;4.44632000;2022-07-24T05:36:47;17.40;99.90
18373;DHT22;9313;51.27979100;4.44632000;2022-07-24T05:39:15;17.60;99.90
18373;DHT22;9313;51.27979100;4.44632000;2022-07-24T05:41:41;17.60;99.90
18373;DHT22;9313;51.27979100;4.44632000;2022-07-24T05:44:07;17.80;99.90
18373;DHT22;9313;51.27979100;4.44632000;2022-07-24T05:46:33;17.90;99.90
18373;DHT22;9313;51.27979100;4.44632000;2022-07-24T05:49:06;18.00;99.90
18373;DHT22;9313;51.27979100;4.44632000;2022-07-24T05:51:32;18.20;99.90
18373;DHT22;9313;51.27979100;4.44632000;2022-07-24T05:54:00;18.30;99.90
18373;DHT22;9313;51.27979100;4.44632000;2022-07-24T05:56:28;18.40;99.90
18373;DHT22;9313;51.27979100;4.44632000;2022-07-24T05:58:58;18.50;99.90
18373;DHT22;9313;51.27979100;4.44632000;2022-07-24T06:01:25;18.60;99.90
18373;DHT22;9313;51.27979100;4.44632000;2022-07-24T06:03:54;18.60;99.90
18373;DHT22;9313;51.27979100;4.44632000;2022-07-24T06:06:22;18.70;99.90
18373;DHT22;9313;51.27979100;4.44632000;2022-07-24T06:08:48;18.80;99.90
18373;DHT22;9313;51.27979100;4.44632000;2022-07-24T06:11:17;18.80;99.90
18373;DHT22;9313;51.27979100;4.44632000;2022-07-24T06:14:02;18.90;99.90
18373;DHT22;9313;51.27979100;4.44632000;2022-07-24T06:16:31;19.00;99.90
18373;DHT22;9313;51.27979100;4.44632000;2022-07-24T06:19:02;19.10;99.90
18373;DHT22;9313;51.27979100;4.44632000;2022-07-24T06:21:27;19.20;99.90
18373;DHT22;9313;51.27979100;4.44632000;2022-07-24T06:23:56;19.40;99.90
18373;DHT22;9313;51.27979100;4.44632000;2022-07-24T06:26:23;19.60;99.90
18373;DHT22;9313;51.27979100;4.44632000;2022-07-24T06:28:49;19.80;99.90
18373;DHT22;9313;51.27979100;4.44632000;2022-07-24T06:31:15;20.10;99.90
18373;DHT22;9313;51.27979100;4.44632000;2022-07-24T06:33:44;20.30;99.90
18373;DHT22;9313;51.27979100;4.44632000;2022-07-24T06:36:10;20.70;99.90
18373;DHT22;9313;51.27979100;4.44632000;2022-07-24T06:38:38;21.00;99.90
18373;DHT22;9313;51.27979100;4.44632000;2022-07-24T06:41:04;21.40;99.90
18373;DHT22;9313;51.27979100;4.44632000;2022-07-24T06:43:35;21.70;99.90
18373;DHT22;9313;51.27979100;4.44632000;2022-07-24T06:46:02;21.90;99.90
18373;DHT22;9313;51.27979100;4.44632000;2022-07-24T06:48:32;22.10;99.90
18373;DHT22;9313;51.27979100;4.44632000;2022-07-24T06:51:00;22.30;99.90
18373;DHT22;9313;51.27979100;4.44632000;2022-07-24T06:53:28;22.20;99.90
18373;DHT22;9313;51.27979100;4.44632000;2022-07-24T06:55:56;22.00;99.90
18373;DHT22;9313;51.27979100;4.44632000;2022-07-24T06:58:30;21.90;99.90
18373;DHT22;9313;51.27979100;4.44632000;2022-07-24T07:00:58;21.70;99.90
18373;DHT22;9313;51.27979100;4.44632000;2022-07-24T07:03:24;21.50;99.90
18373;DHT22;9313;51.27979100;4.44632000;2022-07-24T07:05:52;21.30;99.90
18373;DHT22;9313;51.27979100;4.44632000;2022-07-24T07:08:18;21.20;99.90
18373;DHT22;9313;51.27979100;4.44632000;2022-07-24T07:10:47;21.20;99.90
18373;DHT22;9313;51.27979100;4.44632000;2022-07-24T07:13:15;21.20;99.90
18373;DHT22;9313;51.27979100;4.44632000;2022-07-24T07:15:43;21.20;99.90
18373;DHT22;9313;51.27979100;4.44632000;2022-07-24T07:18:11;21.20;99.90
18373;DHT22;9313;51.27979100;4.44632000;2022-07-24T07:20:37;21.30;99.90
18373;DHT22;9313;51.27979100;4.44632000;2022-07-24T07:23:05;21.40;99.90
18373;DHT22;9313;51.27979100;4.44632000;2022-07-24T07:25:31;21.50;99.90
18373;DHT22;9313;51.27979100;4.44632000;2022-07-24T07:28:02;21.60;99.90
18373;DHT22;9313;51.27979100;4.44632000;2022-07-24T07:30:28;21.70;99.90
18373;DHT22;9313;51.27979100;4.44632000;2022-07-24T07:32:56;21.90;99.90
18373;DHT22;9313;51.27979100;4.44632000;2022-07-24T07:35:27;22.00;99.90
18373;DHT22;9313;51.27979100;4.44632000;2022-07-24T07:37:56;22.10;99.90
18373;DHT22;9313;51.27979100;4.44632000;2022-07-24T07:40:25;22.20;99.90
18373;DHT22;9313;51.27979100;4.44632000;2022-07-24T07:42:52;22.20;99.90
18373;DHT22;9313;51.27979100;4.44632000;2022-07-24T07:45:18;22.20;99.90
18373;DHT22;9313;51.27979100;4.44632000;2022-07-24T07:47:44;22.20;99.90
18373;DHT22;9313;51.27979100;4.44632000;2022-07-24T07:50:12;22.20;99.90
18373;DHT22;9313;51.27979100;4.44632000;2022-07-24T07:52:38;22.20;99.90
18373;DHT22;9313;51.27979100;4.44632000;2022-07-24T07:55:04;22.20;99.90
18373;DHT22;9313;51.27979100;4.44632000;2022-07-24T07:57:33;22.20;99.90
18373;DHT22;9313;51.27979100;4.44632000;2022-07-24T08:00:01;22.30;99.90
18373;DHT22;9313;51.27979100;4.44632000;2022-07-24T08:02:42;22.40;99.90
18373;DHT22;9313;51.27979100;4.44632000;2022-07-24T08:05:08;22.40;99.90
18373;DHT22;9313;51.27979100;4.44632000;2022-07-24T08:07:37;22.50;99.90
18373;DHT22;9313;51.27979100;4.44632000;2022-07-24T08:10:06;22.50;99.90
18373;DHT22;9313;51.27979100;4.44632000;2022-07-24T08:12:33;22.60;99.90
18373;DHT22;9313;51.27979100;4.44632000;2022-07-24T08:15:01;22.80;99.90
18373;DHT22;9313;51.27979100;4.44632000;2022-07-24T08:17:29;22.90;99.90
18373;DHT22;9313;51.27979100;4.44632000;2022-07-24T08:19:57;23.10;99.90
18373;DHT22;9313;51.27979100;4.44632000;2022-07-24T08:22:25;23.20;99.90
18373;DHT22;9313;51.27979100;4.44632000;2022-07-24T08:24:56;23.30;99.90
18373;DHT22;9313;51.27979100;4.44632000;2022-07-24T08:27:22;23.40;99.90
18373;DHT22;9313;51.27979100;4.44632000;2022-07-24T08:29:50;23.40;99.90
18373;DHT22;9313;51.27979100;4.44632000;2022-07-24T08:32:18;23.40;99.90
18373;DHT22;9313;51.27979100;4.44632000;2022-07-24T08:34:49;23.50;99.90
18373;DHT22;9313;51.27979100;4.44632000;2022-07-24T08:37:20;23.50;99.90
18373;DHT22;9313;51.27979100;4.44632000;2022-07-24T08:39:47;23.50;99.90
18373;DHT22;9313;51.27979100;4.44632000;2022-07-24T08:42:13;23.60;99.90
18373;DHT22;9313;51.27979100;4.44632000;2022-07-24T08:44:41;23.70;99.90
18373;DHT22;9313;51.27979100;4.44632000;2022-07-24T08:47:23;23.80;99.90
18373;DHT22;9313;51.27979100;4.44632000;2022-07-24T08:49:53;23.90;99.90
18373;DHT22;9313;51.27979100;4.44632000;2022-07-24T08:52:22;23.90;99.90
18373;DHT22;9313;51.27979100;4.44632000;2022-07-24T08:54:48;24.00;99.90
18373;DHT22;9313;51.27979100;4.44632000;2022-07-24T08:57:15;24.10;99.90
18373;DHT22;9313;51.27979100;4.44632000;2022-07-24T08:59:44;24.20;99.90
18373;DHT22;9313;51.27979100;4.44632000;2022-07-24T09:02:13;24.30;99.90
18373;DHT22;9313;51.27979100;4.44632000;2022-07-24T09:04:44;24.40;99.90
18373;DHT22;9313;51.27979100;4.44632000;2022-07-24T09:07:15;24.40;99.90
18373;DHT22;9313;51.27979100;4.44632000;2022-07-24T09:09:45;24.50;99.90
18373;DHT22;9313;51.27979100;4.44632000;2022-07-24T09:12:24;24.60;99.90
18373;DHT22;9313;51.27979100;4.44632000;2022-07-24T09:14:51;24.70;99.90
18373;DHT22;9313;51.27979100;4.44632000;2022-07-24T09:17:19;24.80;99.90
18373;DHT22;9313;51.27979100;4.44632000;2022-07-24T09:19:55;24.80;99.90
18373;DHT22;9313;51.27979100;4.44632000;2022-07-24T09:22:35;25.00;99.90
18373;DHT22;9313;51.27979100;4.44632000;2022-07-24T09:27:37;25.40;99.90
18373;DHT22;9313;51.27979100;4.44632000;2022-07-24T09:30:07;25.40;99.90
18373;DHT22;9313;51.27979100;4.44632000;2022-07-24T09:32:38;25.50;99.90
18373;DHT22;9313;51.27979100;4.44632000;2022-07-24T09:35:05;25.60;99.90
18373;DHT22;9313;51.27979100;4.44632000;2022-07-24T09:37:39;25.70;99.90
18373;DHT22;9313;51.27979100;4.44632000;2022-07-24T09:40:07;25.80;99.90
18373;DHT22;9313;51.27979100;4.44632000;2022-07-24T09:42:34;26.00;99.90
18373;DHT22;9313;51.27979100;4.44632000;2022-07-24T09:45:06;26.20;99.90
18373;DHT22;9313;51.27979100;4.44632000;2022-07-24T09:47:36;26.40;99.90
18373;DHT22;9313;51.27979100;4.44632000;2022-07-24T09:50:15;26.60;99.90
18373;DHT22;9313;51.27979100;4.44632000;2022-07-24T09:52:43;26.80;99.90
18373;DHT22;9313;51.27979100;4.44632000;2022-07-24T09:55:24;26.80;99.90
18373;DHT22;9313;51.27979100;4.44632000;2022-07-24T09:57:50;26.80;99.90
18373;DHT22;9313;51.27979100;4.44632000;2022-07-24T10:00:19;26.80;99.90
18373;DHT22;9313;51.27979100;4.44632000;2022-07-24T10:02:48;27.00;99.90
18373;DHT22;9313;51.27979100;4.44632000;2022-07-24T10:05:19;27.10;99.90
18373;DHT22;9313;51.27979100;4.44632000;2022-07-24T10:07:48;27.30;99.90
18373;DHT22;9313;51.27979100;4.44632000;2022-07-24T10:10:19;27.50;99.90
18373;DHT22;9313;51.27979100;4.44632000;2022-07-24T10:12:45;27.80;99.90
18373;DHT22;9313;51.27979100;4.44632000;2022-07-24T10:15:12;28.20;99.90
18373;DHT22;9313;51.27979100;4.44632000;2022-07-24T10:20:41;28.90;99.90
18373;DHT22;9313;51.27979100;4.44632000;2022-07-24T10:23:08;29.20;99.90
18373;DHT22;9313;51.27979100;4.44632000;2022-07-24T10:25:53;29.50;99.90
18373;DHT22;9313;51.27979100;4.44632000;2022-07-24T10:28:39;29.90;99.90
18373;DHT22;9313;51.27979100;4.44632000;2022-07-24T10:31:10;30.30;99.90
18373;DHT22;9313;51.27979100;4.44632000;2022-07-24T10:33:38;30.60;99.90
18373;DHT22;9313;51.27979100;4.44632000;2022-07-24T10:36:28;30.90;99.90
18373;DHT22;9313;51.27979100;4.44632000;2022-07-24T10:39:13;31.20;99.90
18373;DHT22;9313;51.27979100;4.44632000;2022-07-24T10:42:03;31.60;99.90
18373;DHT22;9313;51.27979100;4.44632000;2022-07-24T10:44:32;31.80;99.90
18373;DHT22;9313;51.27979100;4.44632000;2022-07-24T10:47:03;31.90;99.90
18373;DHT22;9313;51.27979100;4.44632000;2022-07-24T10:52:28;32.10;99.90
18373;DHT22;9313;51.27979100;4.44632000;2022-07-24T10:58:03;32.00;99.90
18373;DHT22;9313;51.27979100;4.44632000;2022-07-24T11:03:06;31.80;99.90
18373;DHT22;9313;51.27979100;4.44632000;2022-07-24T11:05:37;31.70;99.90
18373;DHT22;9313;51.27979100;4.44632000;2022-07-24T11:11:10;31.40;99.90
18373;DHT22;9313;51.27979100;4.44632000;2022-07-24T11:18:42;31.20;99.90
18373;DHT22;9313;51.27979100;4.44632000;2022-07-24T11:21:11;31.30;99.90
18373;DHT22;9313;51.27979100;4.44632000;2022-07-24T11:23:36;31.50;99.90
18373;DHT22;9313;51.27979100;4.44632000;2022-07-24T11:29:16;32.00;99.40
18373;DHT22;9313;51.27979100;4.44632000;2022-07-24T11:31:48;32.20;99.60
18373;DHT22;9313;51.27979100;4.44632000;2022-07-24T11:34:16;32.20;98.90
18373;DHT22;9313;51.27979100;4.44632000;2022-07-24T11:36:49;32.20;99.10
18373;DHT22;9313;51.27979100;4.44632000;2022-07-24T11:39:29;32.00;98.80
18373;DHT22;9313;51.27979100;4.44632000;2022-07-24T11:42:03;31.90;98.80
18373;DHT22;9313;51.27979100;4.44632000;2022-07-24T11:52:22;31.80;98.20
18373;DHT22;9313;51.27979100;4.44632000;2022-07-24T11:54:52;31.90;98.90
18373;DHT22;9313;51.27979100;4.44632000;2022-07-24T11:59:55;32.10;97.90
18373;DHT22;9313;51.27979100;4.44632000;2022-07-24T12:02:21;32.20;97.50
18373;DHT22;9313;51.27979100;4.44632000;2022-07-24T12:04:50;32.40;98.40
18373;DHT22;9313;51.27979100;4.44632000;2022-07-24T12:07:24;32.70;97.70
18373;DHT22;9313;51.27979100;4.44632000;2022-07-24T12:09:57;32.70;97.30
18373;DHT22;9313;51.27979100;4.44632000;2022-07-24T12:12:25;32.80;97.50
18373;DHT22;9313;51.27979100;4.44632000;2022-07-24T12:15:07;33.10;97.30
18373;DHT22;9313;51.27979100;4.44632000;2022-07-24T12:20:21;33.70;97.00
18373;DHT22;9313;51.27979100;4.44632000;2022-07-24T12:22:51;33.60;96.20
18373;DHT22;9313;51.27979100;4.44632000;2022-07-24T12:25:22;33.80;96.60
18373;DHT22;9313;51.27979100;4.44632000;2022-07-24T12:27:49;33.80;96.20
18373;DHT22;9313;51.27979100;4.44632000;2022-07-24T12:33:01;33.80;96.20
18373;DHT22;9313;51.27979100;4.44632000;2022-07-24T12:35:32;33.70;95.60
18373;DHT22;9313;51.27979100;4.44632000;2022-07-24T12:38:02;33.70;95.50
18373;DHT22;9313;51.27979100;4.44632000;2022-07-24T12:40:33;33.80;95.90
18373;DHT22;9313;51.27979100;4.44632000;2022-07-24T12:43:10;33.90;95.80
18373;DHT22;9313;51.27979100;4.44632000;2022-07-24T12:45:41;34.20;96.00
18373;DHT22;9313;51.27979100;4.44632000;2022-07-24T12:48:19;34.60;95.20
18373;DHT22;9313;51.27979100;4.44632000;2022-07-24T12:51:03;34.60;94.80
18373;DHT22;9313;51.27979100;4.44632000;2022-07-24T12:53:34;34.80;94.80
18373;DHT22;9313;51.27979100;4.44632000;2022-07-24T12:58:56;34.50;94.50
18373;DHT22;9313;51.27979100;4.44632000;2022-07-24T13:01:23;34.40;94.10
18373;DHT22;9313;51.27979100;4.44632000;2022-07-24T13:03:53;34.50;94.60
18373;DHT22;9313;51.27979100;4.44632000;2022-07-24T13:06:39;34.80;94.10
18373;DHT22;9313;51.27979100;4.44632000;2022-07-24T13:09:07;34.80;93.50
18373;DHT22;9313;51.27979100;4.44632000;2022-07-24T13:11:37;34.80;93.70
18373;DHT22;9313;51.27979100;4.44632000;2022-07-24T13:14:07;34.90;93.90
18373;DHT22;9313;51.27979100;4.44632000;2022-07-24T13:16:39;35.10;93.70
18373;DHT22;9313;51.27979100;4.44632000;2022-07-24T13:19:08;35.20;93.90
18373;DHT22;9313;51.27979100;4.44632000;2022-07-24T13:21:39;35.20;93.40
18373;DHT22;9313;51.27979100;4.44632000;2022-07-24T13:24:13;35.50;93.80
18373;DHT22;9313;51.27979100;4.44632000;2022-07-24T13:26:41;35.70;93.50
18373;DHT22;9313;51.27979100;4.44632000;2022-07-24T13:29:10;36.00;93.10
18373;DHT22;9313;51.27979100;4.44632000;2022-07-24T13:31:42;36.20;92.70
18373;DHT22;9313;51.27979100;4.44632000;2022-07-24T13:34:12;36.60;92.80
18373;DHT22;9313;51.27979100;4.44632000;2022-07-24T13:36:43;37.10;92.20
18373;DHT22;9313;51.27979100;4.44632000;2022-07-24T13:39:10;37.30;91.60
18373;DHT22;9313;51.27979100;4.44632000;2022-07-24T13:41:39;36.90;91.00
18373;DHT22;9313;51.27979100;4.44632000;2022-07-24T13:44:07;36.70;91.40
18373;DHT22;9313;51.27979100;4.44632000;2022-07-24T13:46:38;36.70;91.60
18373;DHT22;9313;51.27979100;4.44632000;2022-07-24T13:49:08;36.70;91.60
18373;DHT22;9313;51.27979100;4.44632000;2022-07-24T13:51:35;36.80;91.30
18373;DHT22;9313;51.27979100;4.44632000;2022-07-24T13:54:03;37.00;91.10
18373;DHT22;9313;51.27979100;4.44632000;2022-07-24T13:56:29;37.20;90.80
18373;DHT22;9313;51.27979100;4.44632000;2022-07-24T13:58:58;37.40;90.80
18373;DHT22;9313;51.27979100;4.44632000;2022-07-24T14:01:27;37.60;90.80
18373;DHT22;9313;51.27979100;4.44632000;2022-07-24T14:03:55;37.90;90.70
18373;DHT22;9313;51.27979100;4.44632000;2022-07-24T14:06:21;38.40;90.90
18373;DHT22;9313;51.27979100;4.44632000;2022-07-24T14:08:50;38.60;90.10
18373;DHT22;9313;51.27979100;4.44632000;2022-07-24T14:11:20;39.20;89.80
18373;DHT22;9313;51.27979100;4.44632000;2022-07-24T14:13:49;39.80;88.40
18373;DHT22;9313;51.27979100;4.44632000;2022-07-24T14:16:17;40.00;87.50
18373;DHT22;9313;51.27979100;4.44632000;2022-07-24T14:18:44;39.90;87.80
18373;DHT22;9313;51.27979100;4.44632000;2022-07-24T14:21:15;40.10;88.10
18373;DHT22;9313;51.27979100;4.44632000;2022-07-24T14:23:43;40.40;86.60
18373;DHT22;9313;51.27979100;4.44632000;2022-07-24T14:26:11;40.70;86.10
18373;DHT22;9313;51.27979100;4.44632000;2022-07-24T14:28:37;40.80;86.70